Time;durP1;ratioP1;P1;durP2;ratioP2;P2;SDS_P1;SDS_P2;PMS_P1;PMS_P2;Temp;Humidity;BMP_temperature;BMP_pressure;BME280_temperature;BME280_humidity;BME280_pressure;Samples;Min_cycle;Max_cycle;Signal;HPM_P1;HPM_P2
2021/09/11 00:00:55;;;;;;;8.43;6.32;;;18.20;99.90;;;;;;5094434;28;20008;-80
2021/09/11 00:03:21;;;;;;;8.55;6.28;;;18.20;99.90;;;;;;5092682;28;20030;-81
2021/09/11 00:05:46;;;;;;;7.85;6.07;;;18.20;99.90;;;;;;5091744;28;20352;-80
2021/09/11 00:08:12;;;;;;;7.65;5.65;;;18.60;99.90;;;;;;5093359;28;20052;-80
2021/09/11 00:10:37;;;;;;;6.95;5.45;;;18.40;99.90;;;;;;5105183;28;20384;-80
2021/09/11 00:13:03;;;;;;;5.82;5.22;;;18.60;99.90;;;;;;5112161;28;20023;-80
2021/09/11 00:15:32;;;;;;;5.63;5.03;;;18.40;99.90;;;;;;5113360;28;20073;-80
2021/09/11 00:18:03;;;;;;;6.38;5.72;;;18.60;99.90;;;;;;5112934;28;20037;-80
2021/09/11 00:20:30;;;;;;;7.80;5.15;;;18.70;99.90;;;;;;5093028;28;20103;-80
2021/09/11 00:22:56;;;;;;;7.15;5.47;;;;;;;;;;5093828;28;20039;-80
2021/09/11 00:25:22;;;;;;;5.93;4.85;;;;;;;;;;5093554;28;20047;-80
2021/09/11 00:27:48;;;;;;;7.13;4.75;;;;;;;;;;5093367;28;20074;-80
2021/09/11 00:30:14;;;;;;;7.13;5.28;;;;;;;;;;5093028;28;20040;-80
2021/09/11 00:32:43;;;;;;;7.72;5.10;;;;;;;;;;5078625;28;20073;-80
2021/09/11 00:35:16;;;;;;;7.55;5.43;;;;;;;;;;5098997;28;20020;-79
2021/09/11 00:37:42;;;;;;;9.55;5.30;;;;;;;;;;5100185;28;20027;-79
2021/09/11 00:40:09;;;;;;;8.40;5.70;;;;;;;;;;5073070;28;20499;-79
2021/09/11 00:42:36;;;;;;;8.93;5.43;;;;;;;;;;5075908;28;20028;-79
2021/09/11 00:45:03;;;;;;;7.90;5.60;;;;;;;;;;5077687;28;20024;-79
2021/09/11 00:47:29;;;;;;;7.65;5.38;;;;;;;;;;5061046;28;20059;-79
2021/09/11 00:49:54;;;;;;;5.82;5.22;;;;;;;;;;5111400;28;20078;-79
2021/09/11 00:52:21;;;;;;;8.77;5.88;;;;;;;;;;5101017;28;20104;-79
2021/09/11 00:54:47;;;;;;;6.72;5.35;;;;;;;;;;5115887;28;20049;-80
2021/09/11 00:57:14;;;;;;;8.85;5.55;;;;;;;;;;5113924;28;20023;-80
2021/09/11 00:59:40;;;;;;;7.35;5.20;;;;;;;;;;5109384;28;20461;-80
2021/09/11 01:02:06;;;;;;;5.57;4.57;;;;;;;;;;5095936;28;20388;-79
2021/09/11 01:04:32;;;;;;;6.82;4.72;;;;;;;;;;5115088;28;20395;-80
2021/09/11 01:06:58;;;;;;;5.85;4.68;;;;;;;;;;5118191;28;20023;-80
2021/09/11 01:09:24;;;;;;;5.32;4.80;;;;;;;;;;5098784;28;20015;-80
2021/09/11 01:11:51;;;;;;;4.78;4.18;;;;;;;;;;5106774;28;20492;-81
2021/09/11 01:14:17;;;;;;;5.38;4.25;;;;;;;;;;5096630;28;20020;-80
2021/09/11 01:16:43;;;;;;;5.20;4.03;;;;;;;;;;5096762;28;20063;-80
2021/09/11 01:19:09;;;;;;;5.07;4.30;;;;;;;;;;5096362;28;20047;-79
2021/09/11 01:21:35;;;;;;;7.03;4.60;;;;;;;;;;5097061;28;20400;-79
2021/09/11 01:24:02;;;;;;;5.63;4.03;;;;;;;;;;5098681;28;20044;-80
2021/09/11 01:26:27;;;;;;;4.00;3.60;;;;;;;;;;5098470;28;20032;-80
2021/09/11 01:28:54;;;;;;;5.75;3.58;;;;;;;;;;5108874;28;20028;-80
2021/09/11 01:31:20;;;;;;;6.65;4.15;;;;;;;;;;5098302;28;20483;-79
2021/09/11 01:33:46;;;;;;;5.10;4.03;;;;;;;;;;5096245;28;20369;-80
2021/09/11 01:36:12;;;;;;;8.05;4.47;;;;;;;;;;5079646;28;20118;-80
2021/09/11 01:38:38;;;;;;;4.60;3.80;;;;;;;;;;5096927;28;20412;-80
2021/09/11 01:41:04;;;;;;;5.45;4.10;;;;;;;;;;5096411;28;20020;-80
2021/09/11 01:43:31;;;;;;;4.85;3.83;;;;;;;;;;5096524;28;20526;-81
2021/09/11 01:45:57;;;;;;;5.10;3.90;;;;;;;;;;5096391;28;20534;-80
2021/09/11 01:48:23;;;;;;;4.47;4.03;;;;;;;;;;5097099;28;20029;-80
2021/09/11 01:50:49;;;;;;;4.85;4.00;;;;;;;;;;5096681;28;20023;-80
2021/09/11 01:53:15;;;;;;;5.85;4.10;;;;;;;;;;5099837;28;20395;-80
2021/09/11 01:55:41;;;;;;;6.10;4.47;;;;;;;;;;5117807;28;20023;-80
2021/09/11 01:58:07;;;;;;;5.82;4.03;;;;;;;;;;5117104;28;20016;-80
2021/09/11 02:00:33;;;;;;;4.68;4.00;;;;;;;;;;5106227;28;20024;-80
2021/09/11 02:02:59;;;;;;;7.18;4.35;;;;;;;;;;5106357;28;20111;-80
2021/09/11 02:05:25;;;;;;;4.50;3.95;;;;;;;;;;5117024;28;20080;-80
2021/09/11 02:07:51;;;;;;;5.93;4.53;;;;;;;;;;5116934;28;20034;-80
2021/09/11 02:10:18;;;;;;;5.53;4.65;;;;;;;;;;5110432;28;20492;-80
2021/09/11 02:12:44;;;;;;;8.05;4.60;;;;;;;;;;5098146;28;20078;-79
2021/09/11 02:15:10;;;;;;;6.72;5.07;;;;;;;;;;5116530;28;20029;-80
2021/09/11 02:17:36;;;;;;;5.50;4.65;;;;;;;;;;5116209;28;20023;-80
2021/09/11 02:20:03;;;;;;;5.80;4.72;;;;;;;;;;5116427;28;20030;-80
2021/09/11 02:22:29;;;;;;;7.30;5.00;;;;;;;;;;5101843;28;20047;-79
2021/09/11 02:24:55;;;;;;;10.98;5.38;;;;;;;;;;5097342;28;20043;-79
2021/09/11 02:27:21;;;;;;;6.60;5.18;;;;;;;;;;5101327;28;20039;-79
2021/09/11 02:29:47;;;;;;;8.02;5.20;;;;;;;;;;5101430;28;20074;-79
2021/09/11 02:32:13;;;;;;;5.32;4.82;;;;;;;;;;5080878;28;20032;-80
2021/09/11 02:34:40;;;;;;;6.97;5.90;;;;;;;;;;5097315;28;20028;-79
2021/09/11 02:37:06;;;;;;;6.18;5.57;;;;;;;;;;5117778;28;20051;-80
2021/09/11 02:39:32;;;;;;;7.18;6.00;;;;;;;;;;5117435;28;20020;-80
2021/09/11 02:41:58;;;;;;;7.38;5.28;;;;;;;;;;5106616;28;20108;-79
2021/09/11 02:44:24;;;;;;;5.93;5.32;;;;;;;;;;5097671;28;20051;-80
2021/09/11 02:46:50;;;;;;;7.90;6.15;;;;;;;;;;5097817;28;20032;-79
2021/09/11 02:49:16;;;;;;;10.63;6.53;;;;;;;;;;5098760;28;20036;-80
2021/09/11 02:51:42;;;;;;;9.40;6.30;;;;;;;;;;5113374;28;20124;-79
2021/09/11 02:54:08;;;;;;;7.45;6.25;;;;;;;;;;5117920;28;20057;-79
2021/09/11 02:56:34;;;;;;;9.65;7.22;;;;;;;;;;5118116;28;20026;-80
2021/09/11 02:59:00;;;;;;;9.30;6.63;;;;;;;;;;5117127;28;20091;-80
2021/09/11 03:01:26;;;;;;;7.13;6.20;;;;;;;;;;5099137;28;20558;-79
2021/09/11 03:03:52;;;;;;;7.93;6.15;;;;;;;;;;5097303;28;20039;-80
2021/09/11 03:06:18;;;;;;;8.23;6.50;;;;;;;;;;5113966;28;20488;-80
2021/09/11 03:08:44;;;;;;;8.55;6.40;;;;;;;;;;5096935;28;20024;-79
2021/09/11 03:11:10;;;;;;;10.15;7.10;;;;;;;;;;5096890;28;20047;-80
2021/09/11 03:13:37;;;;;;;6.78;6.10;;;;;;;;;;5097488;28;20056;-80
2021/09/11 03:16:03;;;;;;;13.43;6.40;;;;;;;;;;5096084;28;20032;-80
2021/09/11 03:18:29;;;;;;;8.25;6.30;;;;;;;;;;5096111;28;20021;-80
2021/09/11 03:20:55;;;;;;;7.28;6.40;;;;;;;;;;5096431;28;20047;-80
2021/09/11 03:23:21;;;;;;;8.55;6.72;;;;;;;;;;5103256;28;20034;-80
2021/09/11 03:25:47;;;;;;;10.85;6.80;;;;;;;;;;5116727;28;20031;-79
2021/09/11 03:28:13;;;;;;;8.15;6.53;;;;;;;;;;5117064;28;20024;-79
2021/09/11 03:30:39;;;;;;;7.22;6.43;;;;;;;;;;5104863;28;20028;-80
2021/09/11 03:33:05;;;;;;;11.10;6.75;;;;;;;;;;5114018;28;20039;-79
2021/09/11 03:35:31;;;;;;;7.50;6.68;;;;;;;;;;5117025;28;20379;-79
2021/09/11 03:37:57;;;;;;;10.05;6.95;;;;;;;;;;5116483;28;20108;-79
2021/09/11 03:40:23;;;;;;;10.13;7.95;;;;;;;;;;5115497;28;20434;-79
2021/09/11 03:42:49;;;;;;;9.82;7.10;;;;;;;;;;5115901;28;20020;-79
2021/09/11 03:45:15;;;;;;;8.95;7.65;;;;;;;;;;5117030;28;20591;-79
2021/09/11 03:47:42;;;;;;;10.02;8.00;;;;;;;;;;5098161;28;20051;-79
2021/09/11 03:50:09;;;;;;;10.35;8.20;;;;;;;;;;5116406;28;20047;-79
2021/09/11 03:52:35;;;;;;;9.43;7.93;;;;;;;;;;5116085;28;20528;-79
2021/09/11 03:55:02;;;;;;;8.55;7.63;;;;;;;;;;5103953;28;20031;-79
2021/09/11 03:57:28;;;;;;;11.38;7.07;;;;;;;;;;5096895;28;20388;-79
2021/09/11 03:59:54;;;;;;;8.82;7.65;;;;;;;;;;5090546;28;20029;-79
2021/09/11 04:02:20;;;;;;;10.88;7.22;;;;;;;;;;5076460;28;20032;-79
2021/09/11 04:04:46;;;;;;;8.63;7.32;;;;;;;;;;5085641;28;20050;-79
2021/09/11 04:07:12;;;;;;;9.65;6.95;;;;;;;;;;5085211;28;20038;-79
2021/09/11 04:09:38;;;;;;;8.02;7.22;;;;;;;;;;5097388;28;20032;-79
2021/09/11 04:12:04;;;;;;;8.15;7.35;;;;;;;;;;5112713;28;20061;-79
2021/09/11 04:14:30;;;;;;;10.77;7.15;;;;;;;;;;5116574;28;20403;-79
2021/09/11 04:16:56;;;;;;;10.13;7.38;;;;;;;;;;5102165;28;20054;-79
2021/09/11 04:19:22;;;;;;;11.00;8.05;;;;;;;;;;5122520;28;20024;-79
2021/09/11 04:21:48;;;;;;;11.20;7.43;;;;;;;;;;5123166;28;20024;-79
2021/09/11 04:24:14;;;;;;;8.13;7.32;;;;;;;;;;5135942;22;20556;-77
2021/09/11 04:26:40;;;;;;;10.25;7.55;;;;;;;;;;5096532;28;20028;-84
2021/09/11 04:29:06;;;;;;;10.15;7.85;;;;;;;;;;5080689;28;20038;-83
2021/09/11 04:31:32;;;;;;;7.90;7.10;;;;;;;;;;5080628;28;20116;-83
2021/09/11 04:33:58;;;;;;;11.10;7.18;;;;;;;;;;5064289;28;20051;-84
2021/09/11 04:36:24;;;;;;;7.97;7.18;;;;;;;;;;5080494;28;20031;-83
2021/09/11 04:38:50;;;;;;;9.23;7.25;;;;;;;;;;5081240;28;20025;-84
2021/09/11 04:41:16;;;;;;;8.55;7.40;;;;;;;;;;5098865;28;20069;-83
2021/09/11 04:43:42;;;;;;;9.73;7.90;;;;;;;;;;5097970;28;20471;-83
2021/09/11 04:46:08;;;;;;;8.93;8.02;;;;;;;;;;5098279;28;20427;-82
2021/09/11 04:48:34;;;;;;;9.40;7.43;;;;;;;;;;5076529;28;20028;-81
2021/09/11 04:51:01;;;;;;;9.45;8.45;;;;;;;;;;5042923;28;20071;-82
2021/09/11 04:53:27;;;;;;;8.93;8.02;;;;;;;;;;5060647;28;20028;-85
2021/09/11 04:55:53;;;;;;;8.88;7.72;;;;;;;;;;5076210;28;20039;-85
2021/09/11 04:58:19;;;;;;;9.63;8.63;;;;;;;;;;5077462;28;20047;-84
2021/09/11 05:00:45;;;;;;;13.98;7.75;;;;;;;;;;5071306;28;20020;-82
2021/09/11 05:03:11;;;;;;;9.55;7.45;;;;;;;;;;5079305;28;20039;-82
2021/09/11 05:05:37;;;;;;;13.27;8.10;;;;;;;;;;5098580;28;20028;-86
2021/09/11 05:08:03;;;;;;;9.35;7.97;;;;;;;;;;5099273;28;20054;-80
2021/09/11 05:10:29;;;;;;;9.27;7.90;;;;;;;;;;5098314;28;20032;-81
2021/09/11 05:12:55;;;;;;;8.82;7.88;;;;;;;;;;5083468;28;20032;-82
2021/09/11 05:15:21;;;;;;;8.75;7.75;;;;;;;;;;5099942;28;20557;-82
2021/09/11 05:17:48;;;;;;;8.73;7.85;;;;;;;;;;5084641;28;20059;-82
2021/09/11 05:20:14;;;;;;;9.38;8.13;;;;;;;;;;5102166;28;20075;-81
2021/09/11 05:22:41;;;;;;;11.45;8.65;;;;;;;;;;5099762;28;20047;-80
2021/09/11 05:25:09;;;;;;;9.50;7.90;;;;;;;;;;5085852;28;20036;-83
2021/09/11 05:27:35;;;;;;;8.57;7.68;;;;;;;;;;5067675;28;20028;-82
2021/09/11 05:30:01;;;;;;;8.68;7.55;;;;;;;;;;5069789;28;20039;-83
2021/09/11 05:32:27;;;;;;;10.30;7.78;;;;;;;;;;5081599;28;20004;-81
2021/09/11 05:34:53;;;;;;;10.23;7.60;;;;;;;;;;5083798;28;20215;-81
2021/09/11 05:37:19;;;;;;;8.32;7.22;;;;;;;;;;5091427;28;20060;-81
2021/09/11 05:39:45;;;;;;;12.18;8.68;;;;;;;;;;5062833;28;20118;-82
2021/09/11 05:42:11;;;;;;;10.43;9.20;;;;;;;;;;5080095;28;20050;-82
2021/09/11 05:44:38;;;;;;;10.82;9.00;;;;;;;;;;5097319;28;20047;-80
2021/09/11 05:47:04;;;;;;;10.18;8.95;;;;;;;;;;5079924;28;20185;-81
2021/09/11 05:49:30;;;;;;;11.02;8.57;;;;;;;;;;5097277;28;20442;-78
2021/09/11 05:51:56;;;;;;;10.88;8.48;;;;;;;;;;5079875;28;20028;-80
2021/09/11 05:54:22;;;;;;;11.90;8.57;;;;;;;;;;5080163;28;20090;-81
2021/09/11 05:56:48;;;;;;;9.60;8.20;;;;;;;;;;5079881;28;20016;-82
2021/09/11 05:59:14;;;;;;;10.75;8.27;;;;;;;;;;5098777;28;20509;-80
2021/09/11 06:01:40;;;;;;;11.40;8.65;;;;;;;;;;5100143;28;20112;-80
2021/09/11 06:04:06;;;;;;;9.75;8.00;;;;;;;;;;5081090;28;20031;-81
2021/09/11 06:06:32;;;;;;;9.50;8.13;;;;;;;;;;5080922;28;20468;-81
2021/09/11 06:08:58;;;;;;;9.70;7.68;;;;;;;;;;5099314;28;20030;-80
2021/09/11 06:11:24;;;;;;;9.70;8.25;;;;;;;;;;5098941;28;20534;-81
2021/09/11 06:13:50;;;;;;;10.32;7.53;;;;;;;;;;5079585;28;20512;-81
2021/09/11 06:16:16;;;;;;;10.25;8.40;;;;;;;;;;5097667;28;20036;-81
2021/09/11 06:18:43;;;;;;;9.57;8.25;;;;;;;;;;5080287;28;20535;-81
2021/09/11 06:21:09;;;;;;;8.98;8.02;;;;;;;;;;5097793;28;20434;-80
2021/09/11 06:23:35;;;;;;;10.18;7.63;;;;;;;;;;5079396;28;20044;-84
2021/09/11 06:26:01;;;;;;;8.00;7.10;;;;;;;;;;5096682;28;20251;-83
2021/09/11 06:28:27;;;;;;;10.25;7.50;;;;;;;;;;5097744;28;20124;-84
2021/09/11 06:30:54;;;;;;;8.38;7.45;;;;;;;;;;5079251;28;20476;-84
2021/09/11 06:33:20;;;;;;;8.27;6.43;;;;;;;;;;5096614;28;20054;-85
2021/09/11 06:35:46;;;;;;;10.05;6.80;;;;;;;;;;5097886;28;20020;-82
2021/09/11 06:38:12;;;;;;;8.88;6.63;;;;;;;;;;5096710;28;20024;-80
2021/09/11 06:40:38;;;;;;;8.75;6.45;;;;;;;;;;5095025;28;20476;-82
2021/09/11 06:43:04;;;;;;;6.68;5.97;;;;;;;;;;5095998;28;20057;-84
2021/09/11 06:45:31;;;;;;;8.13;6.43;;;;;;;;;;5078967;28;20028;-83
2021/09/11 06:47:57;;;;;;;7.00;5.78;;;;;;;;;;5080379;28;20031;-83
2021/09/11 06:50:23;;;;;;;6.10;5.45;;;;;;;;;;5083675;28;20551;-84
2021/09/11 06:52:49;;;;;;;7.53;5.13;;;;;;;;;;5084918;28;20042;-83
2021/09/11 06:55:15;;;;;;;6.13;5.22;;;;;;;;;;5084155;28;20016;-82
2021/09/11 06:57:41;;;;;;;6.68;5.60;;;;;;;;;;5089595;28;20034;-82
2021/09/11 07:00:08;;;;;;;8.95;5.22;;;;;;;;;;5098324;28;20028;-82
2021/09/11 07:02:34;;;;;;;7.70;5.72;;;;;;;;;;5080380;28;20077;-83
2021/09/11 07:05:00;;;;;;;5.50;4.85;;;;;;;;;;5080275;28;20122;-83
2021/09/11 07:07:26;;;;;;;7.28;5.97;;;;;;;;;;5076930;28;20050;-83
2021/09/11 07:09:52;;;;;;;6.18;5.57;;;;;;;;;;5080238;28;20051;-82
2021/09/11 07:12:18;;;;;;;6.82;5.57;;;;;;;;;;5099134;28;20608;-83
2021/09/11 07:14:44;;;;;;;8.23;5.15;;;;;;;;;;5062045;28;20066;-82
2021/09/11 07:17:10;;;;;;;6.78;5.85;;;;;;;;;;5098095;28;20073;-82
2021/09/11 07:19:36;;;;;;;7.53;5.72;;;;;;;;;;5079343;28;20457;-83
2021/09/11 07:22:02;;;;;;;5.82;4.90;;;;;;;;;;5079119;28;20043;-83
2021/09/11 07:24:28;;;;;;;5.43;4.93;;;;;;;;;;5097249;28;20028;-83
2021/09/11 07:26:54;;;;;;;6.63;5.03;;;;;;;;;;5098335;28;20028;-83
2021/09/11 07:29:20;;;;;;;7.68;4.43;;;;;;;;;;5079415;28;20024;-83
2021/09/11 07:31:46;;;;;;;6.13;5.10;;;;;;;;;;5079561;28;20040;-83
2021/09/11 07:34:12;;;;;;;6.70;4.80;;;;;;;;;;5047527;28;20551;-83
2021/09/11 07:36:38;;;;;;;7.13;5.20;;;;;;;;;;5065365;28;20021;-83
2021/09/11 07:39:05;;;;;;;8.52;4.63;;;;;;;;;;5087493;28;20099;-82
2021/09/11 07:41:31;;;;;;;5.38;4.53;;;;;;;;;;5081576;28;20108;-81
2021/09/11 07:43:58;;;;;;;6.28;4.20;;;;;;;;;;5069167;28;20035;-82
2021/09/11 07:46:24;;;;;;;6.00;4.70;;;;;;;;;;5056346;28;20035;-81
2021/09/11 07:48:50;;;;;;;6.40;4.65;;;;;;;;;;5088469;28;20396;-81
2021/09/11 07:51:16;;;;;;;6.55;4.20;;;;;;;;;;5060050;28;20028;-82
2021/09/11 07:53:42;;;;;;;6.07;4.38;;;18.60;99.90;;;;;;5076046;28;20113;-82
2021/09/11 07:56:07;;;;;;;5.78;4.80;;;20.10;99.90;;;;;;5060763;28;20059;-81
2021/09/11 07:58:34;;;;;;;6.38;4.43;;;20.00;99.90;;;;;;5061993;28;20039;-82
2021/09/11 08:01:00;;;;;;;7.50;4.63;;;20.10;99.90;;;;;;5080852;28;20115;-82
2021/09/11 08:03:27;;;;;;;5.10;4.40;;;19.80;99.90;;;;;;5044871;28;20066;-81
2021/09/11 08:05:54;;;;;;;7.00;4.70;;;20.30;99.90;;;;;;5098007;28;20214;-82
2021/09/11 08:08:19;;;;;;;6.35;4.65;;;19.70;99.90;;;;;;5062433;28;20123;-81
2021/09/11 08:10:45;;;;;;;5.35;4.78;;;19.60;99.90;;;;;;5077936;28;20127;-81
2021/09/11 08:13:15;;;;;;;5.00;4.50;;;20.10;99.90;;;;;;5079005;28;20035;-82
2021/09/11 08:15:41;;;;;;;6.30;4.53;;;19.60;99.90;;;;;;5088539;28;20467;-81
2021/09/11 08:18:07;;;;;;;8.07;4.60;;;19.50;99.90;;;;;;5073370;28;20087;-82
2021/09/11 08:20:35;;;;;;;6.30;4.40;;;19.60;99.90;;;;;;5056737;28;20048;-83
2021/09/11 08:23:02;;;;;;;8.07;4.88;;;19.60;99.90;;;;;;5060620;28;20035;-82
2021/09/11 08:25:28;;;;;;;5.55;4.30;;;19.60;99.90;;;;;;5077872;28;20035;-82
2021/09/11 08:27:53;;;;;;;5.28;4.38;;;20.00;99.90;;;;;;5074827;28;20043;-82
2021/09/11 08:30:19;;;;;;;7.10;4.38;;;19.90;99.90;;;;;;5093256;28;20046;-83
2021/09/11 08:32:45;;;;;;;5.70;4.25;;;20.30;99.90;;;;;;5082555;28;20086;-82
2021/09/11 08:35:13;;;;;;;5.65;4.45;;;20.10;99.90;;;;;;5073823;28;20028;-83
2021/09/11 08:37:39;;;;;;;6.53;4.07;;;20.20;99.90;;;;;;5084864;28;20020;-83
2021/09/11 08:40:05;;;;;;;4.72;3.97;;;20.50;99.90;;;;;;5049266;28;20060;-82
2021/09/11 08:42:31;;;;;;;6.40;4.18;;;20.40;99.90;;;;;;5068342;28;20085;-82
2021/09/11 08:44:57;;;;;;;5.00;3.63;;;20.50;99.90;;;;;;5090957;28;20082;-82
2021/09/11 08:47:23;;;;;;;6.60;4.40;;;20.40;99.90;;;;;;5056550;28;20032;-82
2021/09/11 08:49:48;;;;;;;4.82;3.92;;;20.60;99.90;;;;;;5059984;28;20078;-82
2021/09/11 08:52:14;;;;;;;6.53;4.05;;;;;;;;;;5079845;28;20178;-82
2021/09/11 08:54:40;;;;;;;5.65;3.80;;;;;;;;;;5064664;28;20150;-82
2021/09/11 08:57:19;;;;;;;5.40;3.70;;;;;;;;;;5078716;28;20086;-83
2021/09/11 08:59:45;;;;;;;4.20;3.40;;;;;;;;;;5067440;28;20017;-83
2021/09/11 09:02:11;;;;;;;5.63;3.58;;;;;;;;;;5066357;28;20092;-82
2021/09/11 09:04:44;;;;;;;5.25;3.58;;;;;;;;;;5046689;28;20021;-83
2021/09/11 09:07:10;;;;;;;4.95;3.33;;;;;;;;;;5076156;28;20024;-83
2021/09/11 09:09:40;;;;;;;4.57;3.67;;;20.80;99.90;;;;;;5091930;28;20027;-82
2021/09/11 09:12:14;;;;;;;4.38;3.40;;;22.50;99.90;;;;;;5107527;28;20020;-83
2021/09/11 09:14:56;;;;;;;4.30;3.70;;;21.90;99.90;;;;;;5078263;28;20048;-80
2021/09/11 09:17:35;;;;;;;4.35;3.50;;;22.00;99.90;;;;;;5082206;28;20089;-81
2021/09/11 09:20:20;;;;;;;5.47;3.53;;;22.00;99.90;;;;;;5101385;28;20043;-82
2021/09/11 09:22:48;;;;;;;6.35;3.90;;;;;;;;;;5100983;28;20419;-82
2021/09/11 09:25:20;;;;;;;5.93;3.45;;;;;;;;;;5066411;28;20051;-81
2021/09/11 09:27:53;;;;;;;3.83;3.42;;;;;;;;;;5070739;28;20032;-80
2021/09/11 09:30:20;;;;;;;5.65;3.63;;;;;;;;;;5104863;28;20089;-83
2021/09/11 09:32:50;;;;;;;4.80;3.53;;;22.10;99.90;;;;;;5089469;28;20308;-81
2021/09/11 09:35:24;;;;;;;6.32;3.60;;;22.80;99.90;;;;;;5109477;28;20023;-80
2021/09/11 09:37:57;;;;;;;6.65;3.70;;;23.20;99.90;;;;;;5109105;28;20047;-84
2021/09/11 09:41:02;;;;;;;5.90;3.20;;;;;;;;;;5066245;28;20077;-83
2021/09/11 09:43:42;;;;;;;5.50;3.35;;;;;;;;;;5027196;28;20029;-78
2021/09/11 09:46:11;;;;;;;5.70;3.40;;;;;;;;;;5018205;28;20026;-77
2021/09/11 09:48:38;;;;;;;5.18;3.10;;;;;;;;;;5054751;28;20118;-83
2021/09/11 09:51:14;;;;;;;5.32;3.15;;;;;;;;;;5084700;28;20028;-81
2021/09/11 09:53:41;;;;;;;5.18;3.63;;;;;;;;;;5100564;28;20101;-82
2021/09/11 09:56:08;;;;;;;4.70;3.50;;;;;;;;;;5101227;28;20020;-82
2021/09/11 09:58:35;;;;;;;5.25;2.83;;;;;;;;;;5083007;28;20123;-83
2021/09/11 10:01:01;;;;;;;4.68;3.47;;;;;;;;;;5081234;28;20016;-83
2021/09/11 10:03:27;;;;;;;5.38;3.10;;;;;;;;;;5082456;28;20045;-84
2021/09/11 10:05:58;;;;;;;4.20;3.20;;;;;;;;;;5095468;28;20067;-83
2021/09/11 10:08:25;;;;;;;5.80;3.25;;;;;;;;;;5094465;28;20023;-83
2021/09/11 10:10:52;;;;;;;8.18;3.38;;;;;;;;;;5088460;28;20024;-83
2021/09/11 10:13:19;;;;;;;4.68;3.40;;;;;;;;;;5079429;28;20059;-83
2021/09/11 10:15:50;;;;;;;4.28;3.45;;;;;;;;;;5082010;28;20032;-82
2021/09/11 10:18:43;;;;;;;4.82;3.10;;;22.20;99.90;;;;;;5082070;28;20035;-83
2021/09/11 10:21:14;;;;;;;6.15;3.08;;;23.50;99.90;;;;;;5092853;28;20060;-83
2021/09/11 10:23:42;;;;;;;3.97;3.10;;;23.30;99.90;;;;;;5078496;28;20115;-84
2021/09/11 10:26:42;;;;;;;3.97;2.90;;;23.40;99.90;;;;;;5095924;22;20078;-79
2021/09/11 10:29:33;;;;;;;4.82;2.83;;;23.60;99.90;;;;;;5095888;28;20384;-79
2021/09/11 10:32:04;;;;;;;5.25;2.58;;;25.80;99.90;;;;;;5088436;28;20024;-80
2021/09/11 10:34:53;;;;;;;4.00;2.90;;;27.40;99.90;;;;;;5104546;28;20038;-80
2021/09/11 10:37:24;;;;;;;3.72;2.50;;;28.50;99.90;;;;;;5110552;28;20031;-80
2021/09/11 10:40:27;;;;;;;3.72;2.42;;;28.40;99.90;;;;;;5085647;28;20523;-79
2021/09/11 10:43:04;;;;;;;3.00;2.35;;;28.40;99.90;;;;;;5104580;28;20028;-80
2021/09/11 10:46:02;;;;;;;2.80;2.20;;;28.20;99.90;;;;;;5103126;28;20016;-80
2021/09/11 10:48:48;;;;;;;6.03;2.30;;;28.10;99.90;;;;;;5093041;28;20403;-80
2021/09/11 10:51:35;;;;;;;4.43;2.17;;;27.80;99.90;;;;;;5084880;28;20441;-80
2021/09/11 10:54:10;;;;;;;6.13;2.60;;;26.80;99.90;;;;;;5094376;28;20032;-80
2021/09/11 10:57:01;;;;;;;3.28;2.08;;;25.70;99.90;;;;;;5102850;28;20017;-80
2021/09/11 10:59:32;;;;;;;3.80;2.30;;;25.90;99.90;;;;;;5085072;28;20073;-80
2021/09/11 11:01:58;;;;;;;2.30;2.00;;;25.70;99.90;;;;;;5067015;28;20025;-81
2021/09/11 11:04:31;;;;;;;3.78;2.35;;;26.70;99.90;;;;;;5082528;28;20341;-81
2021/09/11 11:06:59;;;;;;;3.50;2.38;;;26.90;99.90;;;;;;5082960;28;20481;-81
2021/09/11 11:09:26;;;;;;;4.85;2.67;;;26.80;99.90;;;;;;5082183;28;20033;-81
2021/09/11 11:11:53;;;;;;;3.53;2.15;;;27.20;99.90;;;;;;5083005;28;20074;-81
2021/09/11 11:14:20;;;;;;;2.95;2.05;;;28.40;99.90;;;;;;5101521;28;20023;-81
2021/09/11 11:16:54;;;;;;;3.03;2.38;;;29.10;98.50;;;;;;5108029;28;20031;-80
2021/09/11 11:19:28;;;;;;;2.17;1.92;;;29.50;99.10;;;;;;5105109;28;20035;-80
2021/09/11 11:22:03;;;;;;;2.88;2.42;;;29.60;95.70;;;;;;5108335;28;20020;-80
2021/09/11 11:24:35;;;;;;;8.18;2.70;;;29.00;95.70;;;;;;5090238;28;20088;-79
2021/09/11 11:27:01;;;;;;;;;;;27.90;96.90;;;;;;5089117;28;20039;-80
2021/09/11 11:29:28;;;;;;;3.42;2.50;;;26.50;99.50;;;;;;5107586;28;19908;-80
2021/09/11 11:31:54;;;;;;;3.78;2.08;;;25.90;99.90;;;;;;5108839;28;20028;-80
2021/09/11 11:34:20;;;;;;;3.38;2.50;;;26.00;99.90;;;;;;5088140;28;20028;-81
2021/09/11 11:36:54;;;;;;;4.40;2.40;;;25.90;99.90;;;;;;5108346;28;20074;-81
2021/09/11 11:39:23;;;;;;;3.50;2.42;;;25.80;99.90;;;;;;5104650;28;20075;-81
2021/09/11 11:42:01;;;;;;;3.53;2.30;;;25.60;99.90;;;;;;5068921;28;20040;-81
2021/09/11 11:44:28;;;;;;;3.60;2.42;;;25.20;99.90;;;;;;5105398;28;20035;-80
2021/09/11 11:47:20;;;;;;;3.80;2.40;;;25.80;99.90;;;;;;5088555;28;20031;-80
2021/09/11 11:49:46;;;;;;;2.53;2.03;;;26.60;99.90;;;;;;5073790;28;20055;-79
2021/09/11 11:52:13;;;;;;;5.43;2.50;;;26.30;99.90;;;;;;5082619;28;20032;-79
2021/09/11 11:54:44;;;;;;;6.97;3.72;;;25.90;99.90;;;;;;5103536;28;20054;-80
2021/09/11 11:57:12;;;;;;;2.58;2.00;;;26.10;99.90;;;;;;5088006;28;20544;-80
2021/09/11 11:59:39;;;;;;;3.38;2.10;;;27.20;99.90;;;;;;5104079;28;20206;-81
2021/09/11 12:02:24;;;;;;;3.95;2.03;;;28.50;99.20;;;;;;5102457;28;20028;-80
2021/09/11 12:04:52;;;;;;;5.72;2.58;;;29.70;96.90;;;;;;5078115;28;20016;-82
2021/09/11 12:07:29;;;;;;;3.45;2.10;;;30.10;96.10;;;;;;5098318;28;20107;-80
2021/09/11 12:10:00;;;;;;;2.85;1.90;;;30.80;94.60;;;;;;5114031;28;20076;-79
2021/09/11 12:12:46;;;;;;;2.97;2.00;;;30.10;93.00;;;;;;5120011;28;20043;-80
2021/09/11 12:15:14;;;;;;;4.65;2.05;;;28.70;94.40;;;;;;5085460;28;20484;-80
2021/09/11 12:17:54;;;;;;;3.00;1.90;;;27.80;95.70;;;;;;5097451;28;20017;-79
2021/09/11 12:20:20;;;;;;;3.75;1.90;;;27.90;96.80;;;;;;5078899;28;20024;-79
2021/09/11 12:23:02;;;;;;;3.50;2.00;;;27.10;97.10;;;;;;5082149;28;20032;-80
2021/09/11 12:25:44;;;;;;;3.42;2.00;;;26.50;98.40;;;;;;5100025;28;20111;-80
2021/09/11 12:28:29;;;;;;;4.13;1.60;;;27.20;98.20;;;;;;5094960;28;20047;-79
2021/09/11 12:30:55;;;;;;;2.28;1.63;;;27.60;97.60;;;;;;5081047;28;20059;-80
2021/09/11 12:33:20;;;;;;;1.48;1.30;;;27.80;96.60;;;;;;5087787;28;20036;-82
2021/09/11 12:35:46;;;;;;;1.83;1.63;;;28.40;95.90;;;;;;5083423;28;20021;-80
2021/09/11 12:38:12;;;;;;;4.65;1.60;;;28.00;95.20;;;;;;5096012;28;20028;-79
2021/09/11 12:40:37;;;;;;;3.17;1.60;;;27.70;96.50;;;;;;5109268;28;20096;-80
2021/09/11 12:43:03;;;;;;;2.45;1.50;;;27.50;96.30;;;;;;5105163;28;20032;-80
2021/09/11 12:45:28;;;;;;;2.97;1.55;;;27.40;96.90;;;;;;5088617;28;20029;-80
2021/09/11 12:47:54;;;;;;;2.33;1.60;;;27.30;97.00;;;;;;5070423;28;20511;-80
2021/09/11 12:50:21;;;;;;;1.98;1.20;;;26.50;97.40;;;;;;5103154;28;20028;-80
2021/09/11 12:52:49;;;;;;;2.05;1.35;;;26.20;97.50;;;;;;5082856;28;20052;-80
2021/09/11 12:55:15;;;;;;;2.22;1.45;;;26.30;98.80;;;;;;5102038;28;20031;-81
2021/09/11 12:57:42;;;;;;;2.05;1.40;;;26.20;98.70;;;;;;5100527;28;20032;-80
2021/09/11 13:00:08;;;;;;;1.33;1.10;;;25.70;99.50;;;;;;5084908;28;20032;-80
2021/09/11 13:02:34;;;;;;;1.90;1.42;;;25.50;99.60;;;;;;5105810;28;20044;-81
2021/09/11 13:05:05;;;;;;;2.72;1.40;;;25.20;99.90;;;;;;5090046;28;20028;-80
2021/09/11 13:07:30;;;;;;;2.38;1.50;;;25.20;99.90;;;;;;5105207;28;20051;-80
2021/09/11 13:09:56;;;;;;;1.60;1.30;;;25.00;99.90;;;;;;5078998;28;20532;-81
2021/09/11 13:12:21;;;;;;;2.25;1.60;;;24.30;99.90;;;;;;5086123;28;20107;-81
2021/09/11 13:14:47;;;;;;;2.70;1.45;;;24.60;99.90;;;;;;5088953;28;20110;-81
2021/09/11 13:17:13;;;;;;;1.83;1.27;;;24.50;99.90;;;;;;5106504;28;20028;-81
2021/09/11 13:19:38;;;;;;;1.85;1.45;;;25.10;99.90;;;;;;5105508;28;20039;-81
2021/09/11 13:22:04;;;;;;;2.17;1.17;;;25.40;99.90;;;;;;5105913;28;20024;-81
2021/09/11 13:24:30;;;;;;;2.08;1.50;;;25.60;99.90;;;;;;5086426;28;20036;-81
2021/09/11 13:26:56;;;;;;;2.70;1.42;;;25.80;99.90;;;;;;5106376;28;20039;-81
2021/09/11 13:29:22;;;;;;;2.60;1.50;;;25.70;99.90;;;;;;5103161;28;20073;-81
2021/09/11 13:31:48;;;;;;;2.88;1.50;;;25.50;99.90;;;;;;5089257;28;20077;-81
2021/09/11 13:34:14;;;;;;;2.50;1.50;;;25.20;99.90;;;;;;5087312;28;20024;-81
2021/09/11 13:36:40;;;;;;;2.22;1.60;;;25.30;99.90;;;;;;5108757;28;20019;-80
2021/09/11 13:39:06;;;;;;;3.63;1.90;;;25.20;99.90;;;;;;5093030;28;20016;-80
2021/09/11 13:41:31;;;;;;;2.45;1.80;;;24.80;99.90;;;;;;5115946;28;20032;-80
2021/09/11 13:43:57;;;;;;;2.60;1.25;;;25.00;99.90;;;;;;5115270;28;20028;-81
2021/09/11 13:46:23;;;;;;;1.55;1.17;;;25.00;99.90;;;;;;5115459;28;20024;-80
2021/09/11 13:48:50;;;;;;;2.65;0.98;;;25.30;99.90;;;;;;5096414;28;20016;-80
2021/09/11 13:51:17;;;;;;;3.58;1.25;;;26.20;99.90;;;;;;5117242;28;20024;-80
2021/09/11 13:53:43;;;;;;;2.25;1.13;;;27.80;98.10;;;;;;5108852;28;20047;-81
2021/09/11 13:56:12;;;;;;;1.17;1.00;;;28.20;96.40;;;;;;5117200;28;20028;-81
2021/09/11 13:58:37;;;;;;;2.35;1.08;;;29.60;94.70;;;;;;5114306;28;20137;-80